Time;durP1;ratioP1;P1;durP2;ratioP2;P2;SDS_P1;SDS_P2;PMS_P1;PMS_P2;Temp;Humidity;BMP_temperature;BMP_pressure;BME280_temperature;BME280_humidity;BME280_pressure;Samples;Min_cycle;Max_cycle;Signal;HPM_P1;HPM_P2
2021/07/17 00:01:08;;;;;;;25.77;19.20;;;;;;;;;;5034403;28;20440;-43
2021/07/17 00:03:34;;;;;;;23.50;17.23;;;;;;;;;;5034455;28;20029;-44
2021/07/17 00:06:00;;;;;;;22.33;15.40;;;;;;;;;;5049159;28;20065;-47
2021/07/17 00:08:26;;;;;;;20.42;15.43;;;;;;;;;;5034348;28;20029;-47
2021/07/17 00:10:53;;;;;;;25.50;17.95;;;;;;;;;;5034440;28;20034;-44
2021/07/17 00:13:20;;;;;;;17.40;12.38;;;;;;;;;;5034177;28;20024;-44
2021/07/17 00:15:47;;;;;;;40.17;27.90;;;;;;;;;;5033698;28;20124;-43
2021/07/17 00:18:15;;;;;;;21.08;14.77;;;;;;;;;;5034111;28;20520;-45
2021/07/17 00:20:43;;;;;;;47.75;27.60;;;;;;;;;;5034042;28;20037;-43
2021/07/17 00:23:09;;;;;;;52.75;30.63;;;;;;;;;;5033992;28;20037;-42
2021/07/17 00:25:36;;;;;;;50.33;27.75;;;;;;;;;;5034171;28;20075;-43
2021/07/17 00:28:02;;;;;;;34.35;20.60;;;;;;;;;;5033424;28;20057;-44
2021/07/17 00:30:28;;;;;;;23.23;12.50;;;;;;;;;;5034032;28;20033;-47
2021/07/17 00:32:54;;;;;;;26.92;13.25;;;;;;;;;;5033877;28;20444;-44
2021/07/17 00:35:20;;;;;;;24.58;12.60;;;;;;;;;;5033857;28;20488;-43
2021/07/17 00:37:46;;;;;;;18.42;10.43;;;;;;;;;;5033728;28;20039;-45
2021/07/17 00:40:14;;;;;;;17.30;9.00;;;;;;;;;;5033766;28;20022;-47
2021/07/17 00:42:44;;;;;;;14.13;8.07;;;;;;;;;;5033785;28;20029;-46
2021/07/17 00:45:10;;;;;;;12.60;6.57;;;;;;;;;;5033815;28;20041;-46
2021/07/17 00:47:37;;;;;;;12.95;7.88;;;;;;;;;;5033981;28;20509;-42
2021/07/17 00:50:07;;;;;;;26.75;14.38;;;;;;;;;;5033798;28;20033;-43
2021/07/17 00:52:33;;;;;;;29.60;19.98;;;;;;;;;;5033695;28;20029;-44
2021/07/17 00:54:59;;;;;;;26.67;12.90;;;;;;;;;;5033847;28;20026;-43
2021/07/17 00:57:26;;;;;;;20.58;15.50;;;;;;;;;;5033427;28;20103;-43
2021/07/17 00:59:53;;;;;;;17.58;12.95;;;;;;;;;;5033392;28;20503;-43
2021/07/17 01:02:20;;;;;;;12.48;8.73;;;;;;;;;;5033543;28;20539;-44
2021/07/17 01:04:46;;;;;;;19.48;12.48;;;;;;;;;;5033445;28;20123;-43
2021/07/17 01:07:13;;;;;;;17.50;11.40;;;;;;;;;;5033666;28;20104;-44
2021/07/17 01:09:39;;;;;;;21.45;15.13;;;;;;;;;;5033474;28;20030;-43
2021/07/17 01:12:05;;;;;;;16.75;11.43;;;;;;;;;;5033351;28;20037;-42
2021/07/17 01:14:31;;;;;;;14.13;9.15;;;;;;;;;;5048316;28;20397;-44
2021/07/17 01:16:57;;;;;;;25.02;13.18;;;;;;;;;;5033335;28;20029;-43
2021/07/17 01:19:24;;;;;;;24.25;13.32;;;;;;;;;;5033500;28;20022;-44
2021/07/17 01:21:54;;;;;;;34.85;18.13;;;;;;;;;;5033463;28;20072;-43
2021/07/17 01:24:21;;;;;;;78.40;32.90;;;;;;;;;;5033161;28;20026;-44
2021/07/17 01:26:47;;;;;;;112.03;48.17;;;;;;;;;;5033363;28;20029;-42
2021/07/17 01:29:15;;;;;;;139.40;56.92;;;;;;;;;;5033250;28;20389;-44
2021/07/17 01:31:41;;;;;;;170.48;66.43;;;;;;;;;;5033050;28;20445;-42
2021/07/17 01:34:07;;;;;;;173.07;68.55;;;;;;;;;;5032918;28;20037;-42
2021/07/17 01:36:33;;;;;;;173.88;69.80;;;;;;;;;;5033055;28;20033;-42
2021/07/17 01:38:59;;;;;;;193.90;78.75;;;;;;;;;;5033341;28;20022;-45
2021/07/17 01:41:25;;;;;;;186.68;80.10;;;;;;;;;;5037119;28;20477;-43
2021/07/17 01:43:55;;;;;;;170.15;69.47;;;;;;;;;;5036835;28;20167;-46
2021/07/17 01:46:21;;;;;;;138.02;58.55;;;;;;;;;;5037029;28;20021;-42
2021/07/17 01:48:51;;;;;;;140.45;53.28;;;;;;;;;;5036958;28;20026;-43
2021/07/17 01:51:17;;;;;;;136.68;57.55;;;;;;;;;;5037036;28;20539;-45
2021/07/17 01:53:43;;;;;;;249.88;96.82;;;;;;;;;;5036972;28;20105;-43
2021/07/17 01:56:09;;;;;;;239.00;91.53;;;;;;;;;;5037079;28;20037;-47
2021/07/17 01:58:35;;;;;;;225.90;86.95;;;;;;;;;;5037148;28;20137;-44
2021/07/17 02:01:02;;;;;;;157.95;64.28;;;;;;;;;;5036819;28;20444;-43
2021/07/17 02:03:28;;;;;;;113.88;45.58;;;;;;;;;;5036642;28;20017;-44
2021/07/17 02:05:54;;;;;;;71.75;29.77;;;;;;;;;;5036860;28;20018;-46
2021/07/17 02:08:20;;;;;;;45.08;21.33;;;;;;;;;;5036997;28;20381;-45
2021/07/17 02:10:46;;;;;;;55.45;23.00;;;;;;;;;;5036904;28;20127;-45
2021/07/17 02:13:13;;;;;;;47.38;21.13;;;;;;;;;;5036684;28;20028;-45
2021/07/17 02:15:44;;;;;;;61.38;26.02;;;;;;;;;;5036507;28;20045;-44
2021/07/17 02:18:10;;;;;;;63.10;25.70;;;;;;;;;;5036416;28;20037;-44
2021/07/17 02:20:37;;;;;;;70.25;30.63;;;;;;;;;;5036315;28;20036;-44
2021/07/17 02:23:03;;;;;;;85.90;33.83;;;;;;;;;;5036500;28;20388;-43
2021/07/17 02:25:30;;;;;;;105.80;43.65;;;;;;;;;;5036403;28;20031;-45
2021/07/17 02:27:56;;;;;;;124.63;50.47;;;;;;;;;;5036473;28;20104;-46
2021/07/17 02:30:22;;;;;;;107.50;46.22;;;;;;;;;;5035936;28;20121;-43
2021/07/17 02:32:48;;;;;;;61.60;26.70;;;;;;;;;;5036065;28;20032;-44
2021/07/17 02:35:14;;;;;;;40.83;19.90;;;;;;;;;;5036017;28;20049;-42
2021/07/17 02:37:42;;;;;;;28.63;13.95;;;;;;;;;;5036022;28;20071;-43
2021/07/17 02:40:09;;;;;;;19.50;10.45;;;;;;;;;;5036310;28;20029;-42
2021/07/17 02:42:35;;;;;;;13.60;8.40;;;;;;;;;;5035961;28;20101;-45
2021/07/17 02:45:03;;;;;;;11.98;7.95;;;;;;;;;;5036342;28;20544;-45
2021/07/17 02:47:29;;;;;;;10.30;7.85;;;;;;;;;;5035875;28;20117;-43
2021/07/17 02:49:55;;;;;;;9.85;7.10;;;;;;;;;;5035312;28;20485;-43
2021/07/17 02:52:21;;;;;;;16.45;8.82;;;;;;;;;;5036166;28;20091;-43
2021/07/17 02:54:47;;;;;;;11.43;8.40;;;;;;;;;;5035991;28;20029;-44
2021/07/17 02:57:13;;;;;;;13.40;8.43;;;;;;;;;;5035791;28;20481;-43
2021/07/17 02:59:39;;;;;;;14.63;8.57;;;;;;;;;;5035638;28;20365;-42
2021/07/17 03:02:05;;;;;;;12.77;9.30;;;;;;;;;;5035634;28;20021;-44
2021/07/17 03:04:31;;;;;;;13.93;10.65;;;;;;;;;;5035537;28;20022;-44
2021/07/17 03:06:57;;;;;;;16.75;10.20;;;;;;;;;;5035730;28;20025;-43
2021/07/17 03:09:23;;;;;;;11.55;9.07;;;;;;;;;;5035768;28;20119;-43
2021/07/17 03:11:52;;;;;;;17.23;9.65;;;;;;;;;;5035634;28;20504;-44
2021/07/17 03:14:18;;;;;;;14.07;9.25;;;;;;;;;;5035491;28;20147;-42
2021/07/17 03:16:44;;;;;;;13.02;10.15;;;;;;;;;;5035380;28;20041;-44
2021/07/17 03:19:10;;;;;;;13.70;9.38;;;;;;;;;;5035158;28;20474;-43
2021/07/17 03:21:36;;;;;;;19.00;14.18;;;;;;;;;;5035179;28;20025;-42
2021/07/17 03:24:02;;;;;;;19.25;12.30;;;;;;;;;;5035619;28;20029;-43
2021/07/17 03:26:28;;;;;;;15.57;10.70;;;;;;;;;;5035355;28;20028;-45
2021/07/17 03:28:54;;;;;;;14.55;10.85;;;;;;;;;;5035378;28;20018;-46
2021/07/17 03:31:27;;;;;;;22.05;15.25;;;;;;;;;;5035300;28;20069;-45
2021/07/17 03:33:54;;;;;;;15.13;10.10;;;;;;;;;;5035233;28;20033;-44
2021/07/17 03:36:20;;;;;;;14.10;9.77;;;;;;;;;;5035217;28;20432;-45
2021/07/17 03:38:46;;;;;;;16.77;10.70;;;;;;;;;;5034872;28;20037;-44
2021/07/17 03:41:12;;;;;;;14.27;9.52;;;;;;;;;;5034828;28;20055;-43
2021/07/17 03:43:38;;;;;;;11.73;8.10;;;;;;;;;;5034852;28;20029;-43
2021/07/17 03:46:04;;;;;;;14.15;9.25;;;;;;;;;;5034822;28;20061;-43
2021/07/17 03:48:30;;;;;;;16.88;9.73;;;;;;;;;;5034620;28;20108;-43
2021/07/17 03:50:56;;;;;;;17.27;9.90;;;;;;;;;;5034775;28;20029;-46
2021/07/17 03:53:22;;;;;;;14.85;9.02;;;;;;;;;;5034772;28;20032;-45
2021/07/17 03:55:48;;;;;;;12.45;8.82;;;;;;;;;;5034810;28;20088;-44
2021/07/17 03:58:15;;;;;;;11.68;8.70;;;;;;;;;;5034550;28;20025;-43
2021/07/17 04:00:41;;;;;;;13.30;8.55;;;;;;;;;;5034592;28;20037;-43
2021/07/17 04:03:07;;;;;;;11.73;8.60;;;;;;;;;;5033717;28;20056;-44
2021/07/17 04:05:33;;;;;;;12.98;9.52;;;;;;;;;;5034316;28;20104;-44
2021/07/17 04:07:59;;;;;;;15.20;9.80;;;;;;;;;;5034519;28;20476;-44
2021/07/17 04:10:25;;;;;;;16.48;9.07;;;;;;;;;;5034380;28;20033;-44
2021/07/17 04:12:51;;;;;;;21.83;12.05;;;;;;;;;;5034476;28;20036;-43
2021/07/17 04:15:17;;;;;;;14.20;9.15;;;;;;;;;;5034082;28;20045;-43
2021/07/17 04:17:43;;;;;;;24.83;13.63;;;;;;;;;;5034208;28;20025;-45
2021/07/17 04:20:10;;;;;;;13.10;9.43;;;;;;;;;;5034489;28;20100;-43
2021/07/17 04:22:37;;;;;;;17.40;10.32;;;;;;;;;;5034091;28;20036;-43
2021/07/17 04:25:05;;;;;;;15.52;10.63;;;;;;;;;;5034301;28;20053;-45
2021/07/17 04:27:31;;;;;;;16.50;10.75;;;;;;;;;;5034204;28;20473;-42
2021/07/17 04:29:57;;;;;;;17.65;11.52;;;;;;;;;;5034075;28;20021;-43
2021/07/17 04:32:24;;;;;;;15.85;11.23;;;;;;;;;;5033784;28;20041;-43
2021/07/17 04:34:50;;;;;;;17.65;11.23;;;;;;;;;;5033698;28;20469;-42
2021/07/17 04:37:16;;;;;;;14.27;10.80;;;;;;;;;;5033945;28;20156;-43
2021/07/17 04:39:43;;;;;;;14.30;10.07;;;;;;;;;;5033785;28;20488;-42
2021/07/17 04:42:09;;;;;;;19.77;12.40;;;;;;;;;;5034031;28;20022;-43
2021/07/17 04:44:35;;;;;;;17.58;12.23;;;;;;;;;;5033832;28;20037;-43
2021/07/17 04:47:01;;;;;;;15.60;11.18;;;;;;;;;;5034085;28;20109;-43
2021/07/17 04:49:27;;;;;;;15.68;10.60;;;;;;;;;;5033575;28;20065;-43
2021/07/17 04:51:53;;;;;;;15.85;10.27;;;;;;;;;;5033790;28;20489;-43
2021/07/17 04:54:19;;;;;;;13.70;10.60;;;;;;;;;;5033847;28;20480;-43
2021/07/17 04:56:46;;;;;;;15.85;10.38;;;;;;;;;;5048846;28;20035;-44
2021/07/17 04:59:12;;;;;;;14.82;10.40;;;;;;;;;;5033567;28;20022;-43
2021/07/17 05:01:38;;;;;;;14.75;10.30;;;;;;;;;;5033865;28;20530;-45
2021/07/17 05:04:04;;;;;;;12.32;9.70;;;;;;;;;;5033323;28;20079;-44
2021/07/17 05:06:33;;;;;;;10.07;8.70;;;;;;;;;;5033447;28;20032;-44
2021/07/17 05:08:59;;;;;;;14.02;10.02;;;;;;;;;;5033653;28;20037;-44
2021/07/17 05:11:25;;;;;;;19.98;15.18;;;;;;;;;;5033709;28;20128;-45
2021/07/17 05:13:51;;;;;;;16.02;11.32;;;;;;;;;;5033340;28;20025;-43
2021/07/17 05:16:17;;;;;;;17.48;12.95;;;;;;;;;;5033130;28;20049;-43
2021/07/17 05:18:43;;;;;;;18.90;13.82;;;;;;;;;;5033311;28;20025;-43
2021/07/17 05:21:09;;;;;;;15.52;9.98;;;;;;;;;;5033198;28;20488;-49
2021/07/17 05:23:35;;;;;;;13.30;9.20;;;;;;;;;;5033438;28;20025;-43
2021/07/17 05:26:01;;;;;;;13.18;8.50;;;;;;;;;;5033511;28;20034;-43
2021/07/17 05:28:27;;;;;;;11.80;9.10;;;;;;;;;;5033309;28;20028;-44
2021/07/17 05:30:53;;;;;;;15.10;8.93;;;;;;;;;;5033293;28;20159;-46
2021/07/17 05:33:19;;;;;;;16.15;10.38;;;;;;;;;;5033381;28;20021;-43
2021/07/17 05:35:46;;;;;;;11.52;9.40;;;;;;;;;;5033374;28;20029;-49
2021/07/17 05:38:12;;;;;;;16.13;9.65;;;;;;;;;;5033239;28;20037;-43
2021/07/17 05:40:38;;;;;;;14.18;10.57;;;;;;;;;;5033308;28;20069;-52
2021/07/17 05:43:04;;;;;;;18.88;11.02;;;;;;;;;;5033413;28;20029;-43
2021/07/17 05:45:30;;;;;;;18.88;11.75;;;;;;;;;;5033078;28;20477;-43
2021/07/17 05:47:56;;;;;;;14.85;9.82;;;;;;;;;;5033375;28;20041;-44
2021/07/17 05:50:22;;;;;;;11.35;9.93;;;;;;;;;;5031329;28;20468;-43
2021/07/17 05:52:48;;;;;;;11.75;9.63;;;;;;;;;;5033219;28;20035;-43
2021/07/17 05:55:15;;;;;;;23.38;12.82;;;;;;;;;;5033239;28;20083;-43
2021/07/17 05:57:41;;;;;;;13.68;10.00;;;;;;;;;;5033158;28;20041;-43
2021/07/17 06:00:10;;;;;;;16.40;10.63;;;;;;;;;;5033051;28;20045;-44
2021/07/17 06:02:36;;;;;;;14.38;9.57;;;;;;;;;;5032981;28;20025;-43
2021/07/17 06:05:03;;;;;;;13.05;9.40;;;;;;;;;;5032857;28;20539;-44
2021/07/17 06:07:29;;;;;;;16.00;9.18;;;;;;;;;;5033165;28;20104;-43
2021/07/17 06:09:55;;;;;;;12.77;8.25;;;;;;;;;;5033054;28;20504;-44
2021/07/17 06:12:21;;;;;;;13.55;7.57;;;;;;;;;;5033276;28;20067;-44
2021/07/17 06:14:47;;;;;;;14.30;6.82;;;;;;;;;;5032947;28;20045;-45
2021/07/17 06:17:13;;;;;;;13.63;8.23;;;;;;;;;;5033007;28;20156;-44
2021/07/17 06:19:40;;;;;;;7.88;6.75;;;;;;;;;;5032837;28;20041;-43
2021/07/17 06:22:06;;;;;;;13.10;7.93;;;;;;;;;;5032869;28;20029;-43
2021/07/17 06:24:32;;;;;;;12.05;8.23;;;;;;;;;;5032834;28;20025;-43
2021/07/17 06:26:58;;;;;;;21.73;11.13;;;;;;;;;;5036204;28;20029;-46
2021/07/17 06:29:24;;;;;;;24.98;12.95;;;;;;;;;;5036960;28;20028;-46
2021/07/17 06:31:50;;;;;;;37.33;18.02;;;;;;;;;;5036611;28;20033;-43
2021/07/17 06:34:16;;;;;;;39.92;18.05;;;;;;;;;;5036308;28;20083;-43
2021/07/17 06:36:42;;;;;;;43.40;20.15;;;;;;;;;;5036072;28;20564;-43
2021/07/17 06:39:09;;;;;;;37.47;17.88;;;;;;;;;;5036141;28;20025;-45
2021/07/17 06:41:35;;;;;;;36.22;19.98;;;;;;;;;;5036241;28;20362;-42
2021/07/17 06:44:01;;;;;;;30.42;15.88;;;;;;;;;;5036151;28;20025;-43
2021/07/17 06:46:27;;;;;;;31.40;14.82;;;;;;;;;;5036314;28;20163;-43
2021/07/17 06:48:53;;;;;;;38.08;15.48;;;;;;;;;;5036081;28;20040;-43
2021/07/17 06:51:19;;;;;;;27.25;14.32;;;;;;;;;;5035928;28;20033;-41
2021/07/17 06:53:45;;;;;;;27.40;13.98;;;;;;;;;;5035826;28;20093;-43
2021/07/17 06:56:13;;;;;;;28.13;13.50;;;;;;;;;;5036037;28;20056;-43
2021/07/17 06:58:39;;;;;;;25.20;12.20;;;;;;;;;;5051117;28;20440;-45
2021/07/17 07:01:05;;;;;;;20.83;10.00;;;;;;;;;;5035673;28;20075;-44
2021/07/17 07:03:31;;;;;;;20.77;9.25;;;;;;;;;;5036048;28;20072;-44
2021/07/17 07:05:58;;;;;;;15.95;8.90;;;;;;;;;;5035686;28;20017;-45
2021/07/17 07:08:25;;;;;;;12.57;8.10;;;;;;;;;;5035868;28;20068;-44
2021/07/17 07:10:51;;;;;;;9.90;5.95;;;;;;;;;;5035421;28;20447;-43
2021/07/17 07:13:17;;;;;;;11.15;5.85;;;;;;;;;;5035576;28;20033;-43
2021/07/17 07:15:44;;;;;;;13.98;6.53;;;;;;;;;;5035345;28;20037;-41
2021/07/17 07:18:12;;;;;;;9.73;5.85;;;;;;;;;;5035306;28;20053;-44
2021/07/17 07:20:38;;;;;;;8.85;4.93;;;;;;;;;;5035469;28;20478;-43
2021/07/17 07:23:04;;;;;;;10.40;5.93;;;;;;;;;;5035266;28;20025;-43
2021/07/17 07:25:30;;;;;;;8.98;5.45;;;;;;;;;;5035241;28;20473;-46
2021/07/17 07:27:57;;;;;;;7.47;5.43;;;;;;;;;;5035270;28;20104;-43
2021/07/17 07:30:23;;;;;;;9.00;5.70;;;;;;;;;;5035145;28;20030;-44
2021/07/17 07:32:50;;;;;;;12.13;5.80;;;;;;;;;;5035061;28;20025;-43
2021/07/17 07:35:16;;;;;;;12.55;6.15;;;;;;;;;;5035067;28;20061;-43
2021/07/17 07:37:43;;;;;;;12.88;6.20;;;;;;;;;;5034794;28;20071;-43
2021/07/17 07:40:09;;;;;;;8.98;4.93;;;;;;;;;;5034983;28;20140;-43
2021/07/17 07:42:35;;;;;;;10.80;6.78;;;;;;;;;;5035025;28;20495;-46
2021/07/17 07:45:01;;;;;;;11.60;4.82;;;;;;;;;;5035136;28;20052;-43
2021/07/17 07:47:27;;;;;;;9.73;5.60;;;;;;;;;;5034820;28;20112;-44
2021/07/17 07:49:54;;;;;;;10.63;6.80;;;;;;;;;;5034848;28;20029;-44
2021/07/17 07:52:20;;;;;;;16.33;10.40;;;;;;;;;;5042735;28;20072;-44
2021/07/17 07:54:46;;;;;;;15.52;8.73;;;;;;;;;;5054277;28;20463;-42
2021/07/17 07:57:12;;;;;;;22.08;14.80;;;;;;;;;;5053826;28;20061;-42
2021/07/17 07:59:38;;;;;;;21.23;14.52;;;;;;;;;;5054007;28;20032;-42
2021/07/17 08:02:04;;;;;;;19.77;11.13;;;;;;;;;;5054199;28;20043;-43
2021/07/17 08:04:31;;;;;;;24.67;17.52;;;;;;;;;;5053912;28;20386;-42
2021/07/17 08:06:57;;;;;;;19.27;14.02;;;;;;;;;;5054814;28;20086;-43
2021/07/17 08:09:23;;;;;;;17.88;13.73;;;;;;;;;;5054095;28;20088;-43
2021/07/17 08:11:49;;;;;;;20.70;15.05;;;;;;;;;;5054067;28;20029;-42
2021/07/17 08:14:18;;;;;;;26.83;18.88;;;;;;;;;;5054122;28;20104;-42
2021/07/17 08:16:44;;;;;;;15.40;10.88;;;;;;;;;;5034790;28;20535;-42
2021/07/17 08:19:10;;;;;;;24.95;19.65;;;;;;;;;;5022555;28;20029;-43
2021/07/17 08:21:36;;;;;;;17.83;13.77;;;;;;;;;;5022061;28;20025;-44
2021/07/17 08:24:03;;;;;;;18.73;13.95;;;;;;;;;;5022225;28;20083;-47
2021/07/17 08:26:29;;;;;;;14.60;11.70;;;;;;;;;;5022078;28;20026;-44
2021/07/17 08:28:55;;;;;;;13.60;9.52;;;;;;;;;;5022279;28;20119;-44
2021/07/17 08:31:22;;;;;;;11.40;8.00;;;;;;;;;;5021922;28;20065;-44
2021/07/17 08:33:48;;;;;;;14.02;8.30;;;;;;;;;;5022145;28;20029;-42
2021/07/17 08:36:14;;;;;;;22.02;7.53;;;;;;;;;;5021617;28;20501;-45
2021/07/17 08:38:40;;;;;;;52.67;14.93;;;;;;;;;;5021571;28;20118;-42
2021/07/17 08:41:10;;;;;;;11.55;6.05;;;;;;;;;;5022233;28;20483;-42
2021/07/17 08:43:36;;;;;;;8.77;6.28;;;;;;;;;;5022637;28;20022;-42
2021/07/17 08:46:02;;;;;;;11.80;6.63;;;;;;;;;;5021331;28;20047;-44
2021/07/17 08:48:28;;;;;;;8.45;5.75;;;;;;;;;;5021007;28;20793;-42
2021/07/17 08:50:55;;;;;;;11.35;6.32;;;;;;;;;;5021278;28;20144;-43
2021/07/17 08:53:21;;;;;;;10.82;6.07;;;;;;;;;;5021527;28;20029;-44
2021/07/17 08:55:47;;;;;;;20.77;6.72;;;;;;;;;;5021232;28;20474;-44
2021/07/17 08:58:13;;;;;;;11.38;6.97;;;;;;;;;;5021124;28;20427;-44
2021/07/17 09:00:41;;;;;;;13.68;6.68;;;;;;;;;;5020949;28;20032;-42
2021/07/17 09:03:09;;;;;;;11.30;6.13;;;;;;;;;;5021697;28;20753;-45
2021/07/17 09:05:42;;;;;;;10.23;6.32;;;;;;;;;;5022154;28;20016;-43
2021/07/17 09:08:08;;;;;;;10.95;7.05;;;;;;;;;;5020922;28;20456;-44
2021/07/17 09:10:41;;;;;;;9.23;6.60;;;;;;;;;;5021039;28;20045;-42
2021/07/17 09:13:20;;;;;;;11.60;7.50;;;;;;;;;;5022241;28;20029;-43
2021/07/17 09:15:49;;;;;;;8.48;6.30;;;;;;;;;;5021651;28;20133;-43
2021/07/17 09:18:16;;;;;;;13.48;7.38;;;;;;;;;;5022016;28;20033;-43
2021/07/17 09:20:53;;;;;;;11.57;9.40;;;;;;;;;;5020942;28;20106;-41
2021/07/17 09:23:23;;;;;;;12.98;10.75;;;;;;;;;;5022063;28;20476;-41
2021/07/17 09:25:49;;;;;;;18.77;11.38;;;;;;;;;;5020875;28;20056;-43
2021/07/17 09:28:23;;;;;;;20.20;13.07;;;;;;;;;;5020730;28;20030;-43
2021/07/17 09:30:51;;;;;;;15.07;8.43;;;;;;;;;;5021807;28;20036;-42
2021/07/17 09:33:17;;;;;;;13.50;7.82;;;;;;;;;;5020980;28;20057;-42
2021/07/17 09:35:48;;;;;;;16.75;7.60;;;;;;;;;;5020876;28;20060;-43
2021/07/17 09:38:15;;;;;;;13.18;7.25;;;;;;;;;;5020609;28;20030;-43
2021/07/17 09:40:42;;;;;;;13.30;9.85;;;;;;;;;;5020637;28;20026;-43
2021/07/17 09:43:08;;;;;;;15.18;8.65;;;;;;;;;;5021083;28;20112;-44
2021/07/17 09:45:39;;;;;;;14.27;7.97;;;;;;;;;;5021743;28;20381;-43
2021/07/17 09:48:20;;;;;;;18.20;8.40;;;;;;;;;;5020791;28;20091;-41
2021/07/17 09:50:47;;;;;;;15.13;7.63;;;;;;;;;;5020782;28;20439;-42
2021/07/17 09:53:13;;;;;;;8.95;7.45;;;;;;;;;;5020530;28;20086;-43
2021/07/17 09:55:39;;;;;;;14.45;8.80;;;;;;;;;;5045642;28;20043;-41
2021/07/17 09:58:12;;;;;;;16.55;8.80;;;;;;;;;;5073204;28;20031;-41
2021/07/17 10:00:38;;;;;;;12.07;7.95;;;;;;;;;;5074340;28;20017;-43
2021/07/17 10:03:14;;;;;;;12.18;6.85;;;;;;;;;;5076789;28;20028;-41
2021/07/17 10:05:40;;;;;;;12.32;8.43;;;;;;;;;;5076786;28;20024;-43
2021/07/17 10:08:13;;;;;;;9.00;7.05;;;;;;;;;;5076806;28;20024;-42
2021/07/17 10:10:39;;;;;;;10.13;7.30;;;;;;;;;;5076838;28;20027;-43
2021/07/17 10:13:06;;;;;;;8.43;6.25;;;;;;;;;;5076483;28;20035;-41
2021/07/17 10:15:32;;;;;;;12.40;6.55;;;;;;;;;;5076496;28;20048;-41
2021/07/17 10:18:23;;;;;;;7.82;6.00;;;;;;;;;;5076823;28;20037;-42
2021/07/17 10:20:57;;;;;;;12.90;6.47;;;;;;;;;;5076734;28;20029;-41
2021/07/17 10:23:23;;;;;;;10.55;6.75;;;;;;;;;;5076276;28;20024;-42
2021/07/17 10:25:49;;;;;;;9.60;6.35;;;;;;;;;;5076481;28;20020;-41
2021/07/17 10:28:15;;;;;;;7.20;6.18;;;;;;;;;;5076591;28;20441;-42
2021/07/17 10:30:42;;;;;;;10.60;6.57;;;;;;;;;;5076167;28;20066;-41
2021/07/17 10:33:09;;;;;;;11.23;6.40;;;;;;;;;;5076301;28;20425;-45
2021/07/17 10:35:38;;;;;;;10.32;6.35;;;;;;;;;;5076142;28;20021;-42
2021/07/17 10:38:06;;;;;;;10.05;7.25;;;;;;;;;;5076016;28;20055;-42
2021/07/17 10:40:33;;;;;;;6.57;5.78;;;;;;;;;;5076260;28;20032;-42
2021/07/17 10:43:00;;;;;;;7.35;6.22;;;;;;;;;;5076274;28;20107;-43
2021/07/17 10:45:36;;;;;;;7.97;6.15;;;;;;;;;;5076259;28;20028;-44
2021/07/17 10:48:02;;;;;;;10.27;6.10;;;;;;;;;;5075993;28;20028;-42
2021/07/17 10:50:37;;;;;;;8.40;6.45;;;;;;;;;;5075868;28;20070;-41
2021/07/17 10:53:03;;;;;;;7.32;5.97;;;;;;;;;;5076128;28;20032;-42
2021/07/17 10:55:32;;;;;;;8.85;5.88;;;;;;;;;;5075946;28;20047;-42
2021/07/17 10:58:00;;;;;;;7.60;5.95;;;;;;;;;;5075631;28;20028;-41
2021/07/17 11:00:42;;;;;;;10.48;6.70;;;;;;;;;;5075593;28;20461;-42
2021/07/17 11:03:16;;;;;;;10.90;6.63;;;;;;;;;;5075835;28;20025;-43
2021/07/17 11:05:42;;;;;;;7.82;5.82;;;;;;;;;;5075722;28;20021;-42
2021/07/17 11:08:28;;;;;;;18.23;6.85;;;;;;;;;;5075727;28;20029;-43
2021/07/17 11:10:54;;;;;;;8.18;6.15;;;;;;;;;;5075129;28;20020;-43
2021/07/17 11:13:50;;;;;;;12.50;6.22;;;;;;;;;;5075608;28;20090;-41
2021/07/17 11:16:35;;;;;;;10.35;6.53;;;;;;;;;;5033175;28;20045;-42
2021/07/17 11:19:17;;;;;;;8.23;6.63;;;;;;;;;;5033386;28;20045;-43
2021/07/17 11:21:43;;;;;;;14.95;7.10;;;;;;;;;;5033369;28;20036;-43
2021/07/17 11:24:10;;;;;;;10.07;5.97;;;;;;;;;;5033593;28;20033;-47
2021/07/17 11:26:36;;;;;;;13.35;10.80;;;;;;;;;;5031514;28;20455;-43
2021/07/17 11:29:08;;;;;;;26.23;13.70;;;;;;;;;;4995298;28;20105;-42
2021/07/17 11:31:44;;;;;;;10.18;7.40;;;;;;;;;;4994289;28;20088;-42
2021/07/17 11:34:10;;;;;;;10.90;6.60;;;;;;;;;;4995154;28;20042;-42
2021/07/17 11:36:37;;;;;;;13.15;5.85;;;;;;;;;;4995194;28;20022;-43
2021/07/17 11:39:04;;;;;;;10.32;6.15;;;;;;;;;;4995092;28;20792;-42
2021/07/17 11:41:30;;;;;;;11.25;6.15;;;;;;;;;;4994910;28;20046;-42
2021/07/17 11:43:56;;;;;;;7.07;6.20;;;;;;;;;;4994884;28;20783;-43
2021/07/17 11:46:22;;;;;;;10.95;7.57;;;;;;;;;;4994914;28;20177;-41
2021/07/17 11:49:01;;;;;;;11.82;6.45;;;;;;;;;;4994898;28;20037;-42
2021/07/17 11:51:28;;;;;;;14.63;7.57;;;;;;;;;;4994034;28;20057;-42
2021/07/17 11:53:57;;;;;;;10.45;5.95;;;;;;;;;;5022354;28;20655;-42
2021/07/17 11:56:23;;;;;;;12.52;9.98;;;;;;;;;;5022670;28;20083;-45
2021/07/17 11:58:49;;;;;;;15.20;8.60;;;;;;;;;;5023766;28;20017;-42
2021/07/17 12:01:17;;;;;;;8.70;5.80;;;;;;;;;;5023515;28;20086;-42
2021/07/17 12:03:54;;;;;;;9.63;6.05;;;;;;;;;;5022353;28;20026;-43
2021/07/17 12:06:27;;;;;;;13.63;6.00;;;;;;;;;;5023863;28;20020;-42
2021/07/17 12:08:54;;;;;;;8.15;5.65;;;;;;;;;;5022327;28;20320;-42
2021/07/17 12:11:20;;;;;;;10.35;6.32;;;;;;;;;;5022401;28;20452;-42
2021/07/17 12:13:46;;;;;;;11.27;5.78;;;;;;;;;;5022120;28;20018;-42
2021/07/17 12:16:22;;;;;;;10.05;5.80;;;;;;;;;;5021607;28;20544;-41
2021/07/17 12:18:56;;;;;;;7.15;5.90;;;;;;;;;;5021928;28;20158;-44
2021/07/17 12:21:23;;;;;;;10.93;7.85;;;;;;;;;;5022900;28;20013;-43
2021/07/17 12:23:58;;;;;;;10.57;6.80;;;;;;;;;;5021167;28;20033;-41
2021/07/17 12:26:25;;;;;;;9.18;5.57;;;;;;;;;;5023073;28;20056;-42
2021/07/17 12:28:54;;;;;;;11.27;6.18;;;;;;;;;;5023699;28;20037;-42
2021/07/17 12:31:20;;;;;;;10.80;5.78;;;;;;;;;;5023035;28;20070;-42
2021/07/17 12:33:48;;;;;;;11.38;6.53;;;;;;;;;;5022029;28;20052;-42
2021/07/17 12:36:20;;;;;;;9.43;6.10;;;;;;;;;;5021840;28;20040;-42
2021/07/17 12:38:48;;;;;;;14.95;5.70;;;;;;;;;;5022443;28;20026;-42
2021/07/17 12:41:22;;;;;;;7.63;5.40;;;;;;;;;;5022704;28;20013;-43
2021/07/17 12:43:49;;;;;;;7.22;5.95;;;;;;;;;;5021490;28;20405;-42
2021/07/17 12:46:18;;;;;;;10.35;6.05;;;;;;;;;;5021173;28;20075;-42
2021/07/17 12:49:06;;;;;;;11.55;5.70;;;;;;;;;;5022776;28;20036;-43
2021/07/17 12:51:33;;;;;;;8.20;5.97;;;;;;;;;;5019121;28;20045;-42
2021/07/17 12:54:01;;;;;;;8.55;6.00;;;;;;;;;;5021733;28;20041;-42
2021/07/17 12:56:40;;;;;;;23.83;15.50;;;;;;;;;;5021208;28;20159;-43
2021/07/17 12:59:18;;;;;;;11.02;6.10;;;;;;;;;;5021404;28;20326;-43
2021/07/17 13:02:08;;;;;;;11.15;6.03;;;;;;;;;;5022507;28;20515;-44
2021/07/17 13:04:34;;;;;;;8.27;5.57;;;;;;;;;;5000060;28;20044;-43
2021/07/17 13:07:03;;;;;;;15.57;5.53;;;;;;;;;;4999927;28;20332;-43
2021/07/17 13:09:33;;;;;;;8.95;5.72;;;;;;;;;;5001227;28;20080;-42
2021/07/17 13:12:00;;;;;;;9.33;5.53;;;;;;;;;;4999437;28;20041;-42
2021/07/17 13:14:26;;;;;;;8.30;6.03;;;;;;;;;;4999509;28;20049;-43
2021/07/17 13:16:53;;;;;;;7.60;5.18;;;;;;;;;;4999752;28;20804;-43
2021/07/17 13:19:21;;;;;;;12.00;4.90;;;;;;;;;;5001097;28;20169;-42
2021/07/17 13:21:48;;;;;;;7.75;5.30;;;;;;;;;;5000996;28;20654;-44
2021/07/17 13:24:15;;;;;;;11.88;6.05;;;;;;;;;;4999649;28;20083;-44
2021/07/17 13:26:51;;;;;;;9.32;5.40;;;;;;;;;;4999704;28;20026;-44
2021/07/17 13:29:22;;;;;;;5.95;4.55;;;;;;;;;;4999411;28;20101;-42
2021/07/17 13:32:07;;;;;;;13.27;5.05;;;;;;;;;;5001410;28;20045;-42
2021/07/17 13:34:36;;;;;;;8.15;4.72;;;;;;;;;;5000417;28;20092;-41
2021/07/17 13:37:02;;;;;;;9.95;4.57;;;;;;;;;;5003632;28;20464;-44
2021/07/17 13:39:30;;;;;;;9.77;4.97;;;;;;;;;;5003596;28;20037;-43
2021/07/17 13:42:06;;;;;;;12.40;5.20;;;;;;;;;;5017491;28;20041;-43
2021/07/17 13:44:33;;;;;;;6.47;4.93;;;;;;;;;;5042767;28;20483;-44
2021/07/17 13:47:09;;;;;;;8.98;4.90;;;;;;;;;;5037113;28;20033;-43
2021/07/17 13:49:35;;;;;;;7.90;4.78;;;;;;;;;;5037026;28;20028;-44
2021/07/17 13:52:01;;;;;;;5.78;4.20;;;;;;;;;;5038057;28;20033;-43
2021/07/17 13:54:27;;;;;;;9.77;5.25;;;;;;;;;;5036861;28;20021;-44
2021/07/17 13:56:53;;;;;;;8.30;4.82;;;;;;;;;;5036670;28;20381;-42
2021/07/17 13:59:27;;;;;;;6.00;5.28;;;;;;;;;;5036707;28;20024;-43
2021/07/17 14:02:03;;;;;;;10.02;5.75;;;;;;;;;;5036496;28;20021;-42
2021/07/17 14:04:29;;;;;;;10.70;5.47;;;;;;;;;;5036675;28;20024;-43
2021/07/17 14:06:55;;;;;;;7.90;5.80;;;;;;;;;;5036642;28;20481;-43
2021/07/17 14:09:21;;;;;;;9.15;5.43;;;;;;;;;;5036625;28;20052;-44
2021/07/17 14:11:48;;;;;;;8.55;5.80;;;;;;;;;;5036477;28;20033;-44
2021/07/17 14:14:15;;;;;;;16.83;6.95;;;;;;;;;;5036496;28;20029;-44
2021/07/17 14:16:41;;;;;;;10.23;5.97;;;;;;;;;;5036342;28;20152;-44
2021/07/17 14:19:07;;;;;;;6.90;5.32;;;;;;;;;;5036615;28;20024;-44
2021/07/17 14:21:34;;;;;;;7.68;5.85;;;;;;;;;;5036517;28;20030;-44
2021/07/17 14:24:00;;;;;;;11.70;5.95;;;;;;;;;;5035046;28;20112;-42
2021/07/17 14:26:26;;;;;;;8.20;4.60;;;;;;;;;;5036281;28;20018;-43
2021/07/17 14:28:52;;;;;;;8.15;4.97;;;;;;;;;;5036287;28;20485;-44